Main page
METAR-TAF:

METAR-TAF

Airports :

Linate Airport

Milan, Italy

latitude: 45-26N, longitude: 009-17E, elevation: 107 m

Current weather observation

The report was made 22 minutes ago, at 09:20 UTC
Wind 2 kt from variable directions
Temperature 14°C
Humidity 94%
Pressure 1005 hPa
Visibility 10 km or more
Broken clouds at a height of 1000 ft
Overcast at a height of 3000 ft

METAR: LIML 190920Z VRB02KT 9999 BKN010 OVC030 14/13 Q1005 NOSIG

Time: 11:42 (09:42 UTC)

Forecast

The report was made 4 hours and 42 minutes ago, at 05:00 UTC
Forecast valid from 19 at 06 UTC to 20 at 06 UTC
Wind 5 kt from variable directions
Visibility: 7000 m
Scattered clouds at a height of 2000 ft
Broken clouds at a height of 4000 ft
Temporary
from 19 at 06 UTC to 20 at 02 UTC
Visibility: 4000 m
rain
Probability 40% :
Temporary
from 19 at 14 UTC to 19 at 20 UTC
Visibility: 3000 m
thunderstorm, rain

TAF: LIML 190500Z 1906/2006 VRB05KT 7000 SCT020 BKN040 TEMPO 1906/2002 4000 RA PROB40 TEMPO 1914/1920 3000 TSRA

Weather observations and forecasts of more than 4000 airports (METAR and TAF reports).

The available stations are represented by yellow and red dots on the map.

Hover mouse over dot to see the name of the station.

Then click to see weather observations and forecasts.

To change the map : click on the green buttons with a black cross to zoom in, on the green button with a dash to zoom out, or on the green arrows for adjacent maps.


METAR-TAF: